sensor_id;sensor_type;location;lat;lon;timestamp;pressure;altitude;pressure_sealevel;temperature;humidity
32131;BME280;18639;50.716;7.086;2023-01-26T00:01:20;101275.88;;;0.87;100.00
32131;BME280;18639;50.716;7.086;2023-01-26T00:03:46;101312.03;;;1.20;100.00
32131;BME280;18639;50.716;7.086;2023-01-26T00:06:14;101305.34;;;1.12;100.00
32131;BME280;18639;50.716;7.086;2023-01-26T00:08:44;101299.41;;;1.10;100.00
32131;BME280;18639;50.716;7.086;2023-01-26T00:11:11;101305.34;;;1.09;100.00
32131;BME280;18639;50.716;7.086;2023-01-26T00:13:37;101306.19;;;1.08;100.00
32131;BME280;18639;50.716;7.086;2023-01-26T00:16:03;101296.03;;;1.08;100.00
32131;BME280;18639;50.716;7.086;2023-01-26T00:18:29;101282.47;;;1.07;100.00
32131;BME280;18639;50.716;7.086;2023-01-26T00:21:00;101285.78;;;1.14;100.00
32131;BME280;18639;50.716;7.086;2023-01-26T00:23:26;101264.75;;;1.01;100.00
32131;BME280;18639;50.716;7.086;2023-01-26T00:25:52;101270.63;;;1.03;100.00
32131;BME280;18639;50.716;7.086;2023-01-26T00:28:17;101277.41;;;1.06;100.00
32131;BME280;18639;50.716;7.086;2023-01-26T00:30:43;101260.44;;;1.03;100.00
32131;BME280;18639;50.716;7.086;2023-01-26T00:33:08;101263.91;;;0.98;100.00
32131;BME280;18639;50.716;7.086;2023-01-26T00:35:34;101263.09;;;0.96;100.00
32131;BME280;18639;50.716;7.086;2023-01-26T00:37:59;101258.91;;;0.89;100.00
32131;BME280;18639;50.716;7.086;2023-01-26T00:40:24;101262.25;;;0.94;100.00
32131;BME280;18639;50.716;7.086;2023-01-26T00:42:49;101187.31;;;0.44;100.00
32131;BME280;18639;50.716;7.086;2023-01-26T00:45:17;101249.66;;;0.83;100.00
32131;BME280;18639;50.716;7.086;2023-01-26T00:47:42;101258.06;;;0.88;100.00
32131;BME280;18639;50.716;7.086;2023-01-26T00:50:09;101263.16;;;0.88;100.00
32131;BME280;18639;50.716;7.086;2023-01-26T00:52:34;101262.31;;;0.88;100.00
32131;BME280;18639;50.716;7.086;2023-01-26T00:55:00;101258.06;;;0.88;100.00
32131;BME280;18639;50.716;7.086;2023-01-26T00:57:25;101245.41;;;0.85;100.00
32131;BME280;18639;50.716;7.086;2023-01-26T00:59:50;101255.53;;;0.88;100.00
32131;BME280;18639;50.716;7.086;2023-01-26T01:02:16;101218.34;;;0.75;100.00
32131;BME280;18639;50.716;7.086;2023-01-26T01:04:41;101261.41;;;0.93;100.00
32131;BME280;18639;50.716;7.086;2023-01-26T01:07:06;101260.56;;;0.96;100.00
32131;BME280;18639;50.716;7.086;2023-01-26T01:09:31;101224.25;;;0.80;100.00
32131;BME280;18639;50.716;7.086;2023-01-26T01:11:57;101252.00;;;1.01;100.00
32131;BME280;18639;50.716;7.086;2023-01-26T01:14:22;101233.56;;;0.81;100.00
32131;BME280;18639;50.716;7.086;2023-01-26T01:16:48;101232.69;;;0.82;100.00
32131;BME280;18639;50.716;7.086;2023-01-26T01:19:15;101215.81;;;0.76;100.00
32131;BME280;18639;50.716;7.086;2023-01-26T01:21:41;101250.41;;;0.91;100.00
32131;BME280;18639;50.716;7.086;2023-01-26T01:24:06;101229.38;;;0.77;100.00
32131;BME280;18639;50.716;7.086;2023-01-26T01:26:32;101244.47;;;0.92;100.00
32131;BME280;18639;50.716;7.086;2023-01-26T01:28:57;101241.94;;;0.91;100.00
32131;BME280;18639;50.716;7.086;2023-01-26T01:31:23;101244.50;;;0.89;100.00
32131;BME280;18639;50.716;7.086;2023-01-26T01:33:48;101251.28;;;0.89;100.00
32131;BME280;18639;50.716;7.086;2023-01-26T01:36:15;101245.41;;;0.85;100.00
32131;BME280;18639;50.716;7.086;2023-01-26T01:38:42;101242.84;;;0.85;100.00
32131;BME280;18639;50.716;7.086;2023-01-26T01:41:08;101214.19;;;0.69;100.00
32131;BME280;18639;50.716;7.086;2023-01-26T01:43:34;101221.75;;;0.75;100.00
32131;BME280;18639;50.716;7.086;2023-01-26T01:46:01;101198.91;;;0.71;100.00
32131;BME280;18639;50.716;7.086;2023-01-26T01:51:37;101211.50;;;0.84;100.00
32131;BME280;18639;50.716;7.086;2023-01-26T01:54:09;101199.72;;;0.74;100.00
32131;BME280;18639;50.716;7.086;2023-01-26T01:56:39;101220.81;;;0.84;100.00
32131;BME280;18639;50.716;7.086;2023-01-26T01:59:07;101187.03;;;0.73;100.00
32131;BME280;18639;50.716;7.086;2023-01-26T02:01:33;101201.34;;;0.81;100.00
32131;BME280;18639;50.716;7.086;2023-01-26T02:04:00;101211.34;;;0.97;100.00
32131;BME280;18639;50.716;7.086;2023-01-26T02:06:39;101211.31;;;0.98;100.00
32131;BME280;18639;50.716;7.086;2023-01-26T02:09:06;101206.38;;;0.86;100.00
32131;BME280;18639;50.716;7.086;2023-01-26T02:11:39;101190.25;;;0.89;100.00
32131;BME280;18639;50.716;7.086;2023-01-26T02:14:07;101183.50;;;0.84;100.00
32131;BME280;18639;50.716;7.086;2023-01-26T02:16:34;101189.34;;;0.91;100.00
32131;BME280;18639;50.716;7.086;2023-01-26T02:19:00;101180.91;;;0.91;100.00
32131;BME280;18639;50.716;7.086;2023-01-26T02:21:26;101190.16;;;0.96;100.00
32131;BME280;18639;50.716;7.086;2023-01-26T02:24:00;101190.13;;;0.99;100.00
32131;BME280;18639;50.716;7.086;2023-01-26T02:26:29;101182.53;;;0.96;100.00
32131;BME280;18639;50.716;7.086;2023-01-26T02:28:57;101180.84;;;0.95;100.00
32131;BME280;18639;50.716;7.086;2023-01-26T02:31:22;101138.88;;;0.58;100.00
32131;BME280;18639;50.716;7.086;2023-01-26T02:33:49;101145.66;;;0.57;100.00
32131;BME280;18639;50.716;7.086;2023-01-26T02:36:20;101191.13;;;0.84;100.00
32131;BME280;18639;50.716;7.086;2023-01-26T02:38:59;101157.41;;;0.67;100.00
32131;BME280;18639;50.716;7.086;2023-01-26T02:41:27;101118.66;;;0.47;100.00
32131;BME280;18639;50.716;7.086;2023-01-26T02:44:12;101182.00;;;0.67;100.00
32131;BME280;18639;50.716;7.086;2023-01-26T02:46:37;101168.53;;;0.59;100.00
32131;BME280;18639;50.716;7.086;2023-01-26T02:49:02;101144.97;;;0.41;100.00
32131;BME280;18639;50.716;7.086;2023-01-26T02:51:46;101148.28;;;0.50;100.00
32131;BME280;18639;50.716;7.086;2023-01-26T02:54:12;101180.34;;;0.63;100.00
32131;BME280;18639;50.716;7.086;2023-01-26T02:56:57;101177.69;;;0.72;100.00
32131;BME280;18639;50.716;7.086;2023-01-26T02:59:22;101167.66;;;0.60;100.00
32131;BME280;18639;50.716;7.086;2023-01-26T03:01:49;101174.38;;;0.67;100.00
32131;BME280;18639;50.716;7.086;2023-01-26T03:04:16;101161.69;;;0.64;100.00
32131;BME280;18639;50.716;7.086;2023-01-26T03:06:42;101169.28;;;0.65;100.00
32131;BME280;18639;50.716;7.086;2023-01-26T03:09:07;101161.69;;;0.64;100.00
32131;BME280;18639;50.716;7.086;2023-01-26T03:11:32;101138.09;;;0.53;100.00
32131;BME280;18639;50.716;7.086;2023-01-26T03:14:09;101161.72;;;0.62;100.00
32131;BME280;18639;50.716;7.086;2023-01-26T03:16:34;101165.03;;;0.69;100.00
32131;BME280;18639;50.716;7.086;2023-01-26T03:19:00;101147.41;;;0.52;100.00
32131;BME280;18639;50.716;7.086;2023-01-26T03:21:28;101129.66;;;0.48;100.00
32131;BME280;18639;50.716;7.086;2023-01-26T03:24:13;101159.06;;;0.70;100.00
32131;BME280;18639;50.716;7.086;2023-01-26T03:26:57;101152.31;;;0.67;100.00
32131;BME280;18639;50.716;7.086;2023-01-26T03:29:40;101142.16;;;0.66;100.00
32131;BME280;18639;50.716;7.086;2023-01-26T03:32:06;101149.69;;;0.75;100.00
32131;BME280;18639;50.716;7.086;2023-01-26T03:34:31;101144.66;;;0.72;100.00
32131;BME280;18639;50.716;7.086;2023-01-26T03:36:56;101138.69;;;0.73;100.00
32131;BME280;18639;50.716;7.086;2023-01-26T03:39:22;101112.63;;;0.56;100.00
32131;BME280;18639;50.716;7.086;2023-01-26T03:42:06;101128.66;;;0.59;100.00
32131;BME280;18639;50.716;7.086;2023-01-26T03:44:50;101136.22;;;0.67;100.00
32131;BME280;18639;50.716;7.086;2023-01-26T03:47:34;101128.66;;;0.59;100.00
32131;BME280;18639;50.716;7.086;2023-01-26T03:50:18;101135.44;;;0.62;100.00
32131;BME280;18639;50.716;7.086;2023-01-26T03:53:11;101131.19;;;0.64;100.00
32131;BME280;18639;50.716;7.086;2023-01-26T03:55:55;101114.25;;;0.60;100.00
32131;BME280;18639;50.716;7.086;2023-01-26T03:58:43;101126.84;;;0.73;100.00
32131;BME280;18639;50.716;7.086;2023-01-26T04:01:09;101115.84;;;0.70;100.00
32131;BME280;18639;50.716;7.086;2023-01-26T04:03:35;101117.50;;;0.72;100.00
32131;BME280;18639;50.716;7.086;2023-01-26T04:06:19;101112.44;;;0.71;100.00
32131;BME280;18639;50.716;7.086;2023-01-26T04:09:03;101122.59;;;0.71;100.00
32131;BME280;18639;50.716;7.086;2023-01-26T04:11:29;101116.66;;;0.72;100.00
32131;BME280;18639;50.716;7.086;2023-01-26T04:13:54;101114.13;;;0.72;100.00
32131;BME280;18639;50.716;7.086;2023-01-26T04:16:38;101120.06;;;0.72;100.00
32131;BME280;18639;50.716;7.086;2023-01-26T04:19:22;101120.06;;;0.72;100.00
32131;BME280;18639;50.716;7.086;2023-01-26T04:22:06;101121.75;;;0.73;100.00
32131;BME280;18639;50.716;7.086;2023-01-26T04:24:31;101113.34;;;0.65;100.00
32131;BME280;18639;50.716;7.086;2023-01-26T04:26:56;101117.56;;;0.68;100.00
32131;BME280;18639;50.716;7.086;2023-01-26T04:29:22;101093.13;;;0.55;100.00
32131;BME280;18639;50.716;7.086;2023-01-26T04:31:47;101105.78;;;0.62;100.00
32131;BME280;18639;50.716;7.086;2023-01-26T04:34:14;101121.72;;;0.75;100.00
32131;BME280;18639;50.716;7.086;2023-01-26T04:36:40;101129.34;;;0.75;100.00
32131;BME280;18639;50.716;7.086;2023-01-26T04:39:06;101099.91;;;0.54;100.00
32131;BME280;18639;50.716;7.086;2023-01-26T04:41:32;101114.25;;;0.60;100.00
32131;BME280;18639;50.716;7.086;2023-01-26T04:43:58;101120.97;;;0.67;100.00
32131;BME280;18639;50.716;7.086;2023-01-26T04:46:23;101113.41;;;0.59;100.00
32131;BME280;18639;50.716;7.086;2023-01-26T04:48:49;101098.28;;;0.50;100.00
32131;BME280;18639;50.716;7.086;2023-01-26T04:51:19;101104.94;;;0.60;100.00
32131;BME280;18639;50.716;7.086;2023-01-26T04:53:46;101109.19;;;0.60;100.00
32131;BME280;18639;50.716;7.086;2023-01-26T04:56:32;101104.06;;;0.63;100.00
32131;BME280;18639;50.716;7.086;2023-01-26T04:58:59;101119.22;;;0.72;100.00
32131;BME280;18639;50.716;7.086;2023-01-26T05:01:25;101112.44;;;0.71;100.00
32131;BME280;18639;50.716;7.086;2023-01-26T05:03:50;101096.50;;;0.58;100.00
32131;BME280;18639;50.716;7.086;2023-01-26T05:06:16;101110.84;;;0.64;100.00
32131;BME280;18639;50.716;7.086;2023-01-26T05:08:42;101124.28;;;0.72;100.00
32131;BME280;18639;50.716;7.086;2023-01-26T05:11:07;101078.06;;;0.41;100.00
32131;BME280;18639;50.716;7.086;2023-01-26T05:13:33;101083.09;;;0.44;100.00
32131;BME280;18639;50.716;7.086;2023-01-26T05:16:01;101107.53;;;0.56;100.00
32131;BME280;18639;50.716;7.086;2023-01-26T05:18:27;101110.13;;;0.51;100.00
32131;BME280;18639;50.716;7.086;2023-01-26T05:20:52;101113.41;;;0.62;100.00
32131;BME280;18639;50.716;7.086;2023-01-26T05:23:18;101108.31;;;0.59;100.00
32131;BME280;18639;50.716;7.086;2023-01-26T05:25:43;101091.50;;;0.51;100.00
32131;BME280;18639;50.716;7.086;2023-01-26T05:28:08;101051.13;;;0.25;100.00
32131;BME280;18639;50.716;7.086;2023-01-26T05:30:33;101061.28;;;0.23;100.00
32131;BME280;18639;50.716;7.086;2023-01-26T05:33:03;101123.56;;;0.62;100.00
32131;BME280;18639;50.716;7.086;2023-01-26T05:35:29;101076.44;;;0.32;100.00
32131;BME280;18639;50.716;7.086;2023-01-26T05:37:54;101110.94;;;0.55;100.00
32131;BME280;18639;50.716;7.086;2023-01-26T05:40:20;101112.56;;;0.62;100.00
32131;BME280;18639;50.716;7.086;2023-01-26T05:42:46;101121.88;;;0.63;100.00
32131;BME280;18639;50.716;7.086;2023-01-26T05:45:11;101110.13;;;0.50;100.00
32131;BME280;18639;50.716;7.086;2023-01-26T05:47:37;101131.28;;;0.55;100.00
32131;BME280;18639;50.716;7.086;2023-01-26T05:50:03;101129.66;;;0.48;100.00
32131;BME280;18639;50.716;7.086;2023-01-26T05:52:29;101121.25;;;0.43;100.00
32131;BME280;18639;50.716;7.086;2023-01-26T05:54:54;101111.22;;;0.30;100.00
32131;BME280;18639;50.716;7.086;2023-01-26T05:57:20;101115.41;;;0.33;100.00
32131;BME280;18639;50.716;7.086;2023-01-26T05:59:45;101096.06;;;0.18;100.00
32131;BME280;18639;50.716;7.086;2023-01-26T06:02:11;101113.75;;;0.30;100.00
32131;BME280;18639;50.716;7.086;2023-01-26T06:04:37;101140.69;;;0.45;100.00
32131;BME280;18639;50.716;7.086;2023-01-26T06:07:02;101108.72;;;0.26;100.00
32131;BME280;18639;50.716;7.086;2023-01-26T06:09:27;101156.78;;;0.46;100.00
32131;BME280;18639;50.716;7.086;2023-01-26T06:11:52;101111.31;;;0.21;100.00
32131;BME280;18639;50.716;7.086;2023-01-26T06:14:18;101128.16;;;0.28;100.00
32131;BME280;18639;50.716;7.086;2023-01-26T06:16:43;101100.34;;;0.15;100.00
32131;BME280;18639;50.716;7.086;2023-01-26T06:19:09;101144.19;;;0.36;100.00
32131;BME280;18639;50.716;7.086;2023-01-26T06:21:35;101143.41;;;0.31;100.00
32131;BME280;18639;50.716;7.086;2023-01-26T06:24:00;101146.84;;;0.26;100.00
32131;BME280;18639;50.716;7.086;2023-01-26T06:26:26;101141.75;;;0.26;100.00
32131;BME280;18639;50.716;7.086;2023-01-26T06:28:54;101151.94;;;0.24;100.00
32131;BME280;18639;50.716;7.086;2023-01-26T06:31:20;101153.63;;;0.25;100.00
32131;BME280;18639;50.716;7.086;2023-01-26T06:33:45;101145.16;;;0.25;100.00
32131;BME280;18639;50.716;7.086;2023-01-26T06:36:12;101132.53;;;0.14;100.00
32131;BME280;18639;50.716;7.086;2023-01-26T06:38:44;101133.28;;;0.22;100.00
32131;BME280;18639;50.716;7.086;2023-01-26T06:41:09;101148.53;;;0.24;100.00
32131;BME280;18639;50.716;7.086;2023-01-26T06:43:35;101148.50;;;0.28;100.00
32131;BME280;18639;50.716;7.086;2023-01-26T06:46:01;101133.41;;;0.13;100.00
32131;BME280;18639;50.716;7.086;2023-01-26T06:48:30;101143.41;;;0.31;100.00
32131;BME280;18639;50.716;7.086;2023-01-26T06:51:04;101147.63;;;0.31;100.00
32131;BME280;18639;50.716;7.086;2023-01-26T06:53:48;101156.94;;;0.30;100.00
32131;BME280;18639;50.716;7.086;2023-01-26T06:56:15;101137.53;;;0.25;100.00
32131;BME280;18639;50.716;7.086;2023-01-26T06:58:41;101143.34;;;0.34;100.00
32131;BME280;18639;50.716;7.086;2023-01-26T07:01:06;101150.06;;;0.41;100.00
32131;BME280;18639;50.716;7.086;2023-01-26T07:03:31;101154.31;;;0.38;100.00
32131;BME280;18639;50.716;7.086;2023-01-26T07:05:57;101165.28;;;0.43;100.00
32131;BME280;18639;50.716;7.086;2023-01-26T07:08:22;101158.56;;;0.37;100.00
32131;BME280;18639;50.716;7.086;2023-01-26T07:10:50;101168.72;;;0.37;100.00
32131;BME280;18639;50.716;7.086;2023-01-26T07:13:16;101170.50;;;0.29;100.00
32131;BME280;18639;50.716;7.086;2023-01-26T07:15:41;101167.13;;;0.32;100.00
32131;BME280;18639;50.716;7.086;2023-01-26T07:18:07;101125.81;;;0.10;100.00
32131;BME280;18639;50.716;7.086;2023-01-26T07:20:35;101165.38;;;0.35;100.00
32131;BME280;18639;50.716;7.086;2023-01-26T07:23:00;101179.69;;;0.44;100.00
32131;BME280;18639;50.716;7.086;2023-01-26T07:25:26;101180.53;;;0.45;100.00
32131;BME280;18639;50.716;7.086;2023-01-26T07:27:58;101177.19;;;0.39;100.00
32131;BME280;18639;50.716;7.086;2023-01-26T07:30:23;101182.19;;;0.49;100.00
32131;BME280;18639;50.716;7.086;2023-01-26T07:32:49;101180.50;;;0.48;100.00
32131;BME280;18639;50.716;7.086;2023-01-26T07:35:14;101172.84;;;0.49;100.00
32131;BME280;18639;50.716;7.086;2023-01-26T07:37:39;101166.06;;;0.50;100.00
32131;BME280;18639;50.716;7.086;2023-01-26T07:40:05;101177.88;;;0.55;100.00
32131;BME280;18639;50.716;7.086;2023-01-26T07:42:31;101128.22;;;0.24;100.00
32131;BME280;18639;50.716;7.086;2023-01-26T07:44:56;101180.38;;;0.60;100.00
32131;BME280;18639;50.716;7.086;2023-01-26T07:47:21;101176.19;;;0.54;100.00
32131;BME280;18639;50.716;7.086;2023-01-26T07:49:46;101182.09;;;0.58;100.00
32131;BME280;18639;50.716;7.086;2023-01-26T07:52:12;101177.03;;;0.55;100.00
32131;BME280;18639;50.716;7.086;2023-01-26T07:54:37;101173.63;;;0.56;100.00
32131;BME280;18639;50.716;7.086;2023-01-26T07:57:02;101156.78;;;0.46;100.00
32131;BME280;18639;50.716;7.086;2023-01-26T07:59:31;101167.63;;;0.63;100.00
32131;BME280;18639;50.716;7.086;2023-01-26T08:01:56;101149.91;;;0.57;100.00
32131;BME280;18639;50.716;7.086;2023-01-26T08:04:21;101161.66;;;0.68;100.00
32131;BME280;18639;50.716;7.086;2023-01-26T08:06:50;101160.75;;;0.72;100.00
32131;BME280;18639;50.716;7.086;2023-01-26T08:09:15;101164.13;;;0.74;100.00
32131;BME280;18639;50.716;7.086;2023-01-26T08:11:40;101163.22;;;0.77;100.00
32131;BME280;18639;50.716;7.086;2023-01-26T08:14:05;101159.78;;;0.81;100.00
32131;BME280;18639;50.716;7.086;2023-01-26T08:16:31;101163.09;;;0.89;100.00
32131;BME280;18639;50.716;7.086;2023-01-26T08:18:56;101150.44;;;0.84;100.00
32131;BME280;18639;50.716;7.086;2023-01-26T08:21:21;101157.09;;;0.96;100.00
32131;BME280;18639;50.716;7.086;2023-01-26T08:23:48;101168.00;;;1.04;100.00
32131;BME280;18639;50.716;7.086;2023-01-26T08:26:13;101145.22;;;0.95;100.00
32131;BME280;18639;50.716;7.086;2023-01-26T08:28:39;101167.13;;;1.07;100.00
32131;BME280;18639;50.716;7.086;2023-01-26T08:31:11;101168.00;;;1.04;100.00
32131;BME280;18639;50.716;7.086;2023-01-26T08:33:37;101152.81;;;0.98;100.00
32131;BME280;18639;50.716;7.086;2023-01-26T08:36:04;101152.78;;;1.01;100.00
32131;BME280;18639;50.716;7.086;2023-01-26T08:38:31;101159.47;;;1.08;100.00
32131;BME280;18639;50.716;7.086;2023-01-26T08:40:58;101172.09;;;1.17;100.00
32131;BME280;18639;50.716;7.086;2023-01-26T08:43:23;101157.69;;;1.13;100.00
32131;BME280;18639;50.716;7.086;2023-01-26T08:45:49;101158.59;;;1.09;100.00
32131;BME280;18639;50.716;7.086;2023-01-26T08:48:14;101168.69;;;1.17;100.00
32131;BME280;18639;50.716;7.086;2023-01-26T08:50:39;101192.47;;;1.14;100.00
32131;BME280;18639;50.716;7.086;2023-01-26T08:53:05;101187.50;;;1.07;100.00
32131;BME280;18639;50.716;7.086;2023-01-26T08:55:30;101179.84;;;1.07;100.00
32131;BME280;18639;50.716;7.086;2023-01-26T08:57:56;101170.56;;;1.03;100.00
32131;BME280;18639;50.716;7.086;2023-01-26T09:00:22;101171.53;;;0.94;100.00
32131;BME280;18639;50.716;7.086;2023-01-26T09:02:49;101152.81;;;0.98;100.00
32131;BME280;18639;50.716;7.086;2023-01-26T09:05:14;101142.69;;;0.92;100.00
32131;BME280;18639;50.716;7.086;2023-01-26T09:07:43;101193.22;;;1.22;100.00
32131;BME280;18639;50.716;7.086;2023-01-26T09:10:09;101173.09;;;1.03;100.00
32131;BME280;18639;50.716;7.086;2023-01-26T09:12:34;101157.94;;;0.95;100.00
32131;BME280;18639;50.716;7.086;2023-01-26T09:14:59;101173.03;;;1.07;100.00
32131;BME280;18639;50.716;7.086;2023-01-26T09:17:25;101143.53;;;0.93;100.00
32131;BME280;18639;50.716;7.086;2023-01-26T09:19:50;101171.28;;;1.12;100.00
32131;BME280;18639;50.716;7.086;2023-01-26T09:22:15;101183.13;;;1.16;100.00
32131;BME280;18639;50.716;7.086;2023-01-26T09:24:40;101199.13;;;1.24;100.00
32131;BME280;18639;50.716;7.086;2023-01-26T09:27:06;101164.66;;;0.99;100.00
32131;BME280;18639;50.716;7.086;2023-01-26T09:29:31;101202.69;;;1.11;100.00
32131;BME280;18639;50.716;7.086;2023-01-26T09:31:56;101185.81;;;1.04;100.00
32131;BME280;18639;50.716;7.086;2023-01-26T09:34:22;101186.72;;;1.00;100.00
32131;BME280;18639;50.716;7.086;2023-01-26T09:36:49;101196.84;;;1.03;100.00
32131;BME280;18639;50.716;7.086;2023-01-26T09:39:14;101207.78;;;1.10;100.00
32131;BME280;18639;50.716;7.086;2023-01-26T09:44:30;101208.53;;;1.18;100.00
32131;BME280;18639;50.716;7.086;2023-01-26T09:47:19;101211.97;;;1.15;100.00
32131;BME280;18639;50.716;7.086;2023-01-26T09:49:50;101215.31;;;1.20;100.00
32131;BME280;18639;50.716;7.086;2023-01-26T09:52:27;101214.38;;;1.27;100.00
32131;BME280;18639;50.716;7.086;2023-01-26T09:54:57;101203.41;;;1.22;100.00
32131;BME280;18639;50.716;7.086;2023-01-26T10:00:08;101214.38;;;1.27;100.00
32131;BME280;18639;50.716;7.086;2023-01-26T10:05:43;101205.84;;;1.28;100.00
32131;BME280;18639;50.716;7.086;2023-01-26T10:08:11;101206.69;;;1.31;100.00
32131;BME280;18639;50.716;7.086;2023-01-26T10:10:41;101213.41;;;1.35;100.00
32131;BME280;18639;50.716;7.086;2023-01-26T10:13:12;101207.41;;;1.40;100.00
32131;BME280;18639;50.716;7.086;2023-01-26T10:15:42;101209.09;;;1.43;100.00
32131;BME280;18639;50.716;7.086;2023-01-26T10:18:26;101204.72;;;1.51;100.00
32131;BME280;18639;50.716;7.086;2023-01-26T10:20:54;101191.13;;;1.50;100.00
32131;BME280;18639;50.716;7.086;2023-01-26T10:23:24;101191.97;;;1.54;100.00
32131;BME280;18639;50.716;7.086;2023-01-26T10:25:52;101196.06;;;1.64;100.00
32131;BME280;18639;50.716;7.086;2023-01-26T10:28:28;101194.28;;;1.67;100.00
32131;BME280;18639;50.716;7.086;2023-01-26T10:30:55;101188.28;;;1.72;100.00
32131;BME280;18639;50.716;7.086;2023-01-26T10:33:27;101184.88;;;1.71;100.00
32131;BME280;18639;50.716;7.086;2023-01-26T10:35:54;101180.63;;;1.73;100.00
32131;BME280;18639;50.716;7.086;2023-01-26T10:41:02;101178.00;;;1.79;100.00
32131;BME280;18639;50.716;7.086;2023-01-26T10:43:28;101183.03;;;1.82;100.00
32131;BME280;18639;50.716;7.086;2023-01-26T10:45:55;101172.97;;;1.76;100.00
32131;BME280;18639;50.716;7.086;2023-01-26T10:48:22;101175.38;;;1.82;100.00
32131;BME280;18639;50.716;7.086;2023-01-26T10:50:49;101172.91;;;1.78;100.00
32131;BME280;18639;50.716;7.086;2023-01-26T10:55:40;101185.56;;;1.84;100.00
32131;BME280;18639;50.716;7.086;2023-01-26T10:58:35;101175.34;;;1.87;100.00
32131;BME280;18639;50.716;7.086;2023-01-26T11:01:03;101147.34;;;1.84;100.00
32131;BME280;18639;50.716;7.086;2023-01-26T11:03:28;101163.38;;;1.92;100.00
32131;BME280;18639;50.716;7.086;2023-01-26T11:06:14;101156.50;;;1.95;100.00
32131;BME280;18639;50.716;7.086;2023-01-26T11:08:42;101156.34;;;2.04;100.00
32131;BME280;18639;50.716;7.086;2023-01-26T11:11:26;101157.34;;;1.97;100.00
32131;BME280;18639;50.716;7.086;2023-01-26T11:14:16;101162.38;;;2.00;100.00
32131;BME280;18639;50.716;7.086;2023-01-26T11:16:46;101154.84;;;1.93;100.00
32131;BME280;18639;50.716;7.086;2023-01-26T11:25:25;101135.16;;;2.02;100.00
32131;BME280;18639;50.716;7.086;2023-01-26T11:28:12;101135.19;;;2.01;100.00
32131;BME280;18639;50.716;7.086;2023-01-26T11:33:40;101123.38;;;1.97;100.00
32131;BME280;18639;50.716;7.086;2023-01-26T11:36:51;101121.00;;;1.86;100.00
32131;BME280;18639;50.716;7.086;2023-01-26T11:39:52;101122.63;;;1.90;100.00
32131;BME280;18639;50.716;7.086;2023-01-26T11:42:37;101119.91;;;1.98;100.00
32131;BME280;18639;50.716;7.086;2023-01-26T11:45:27;101102.22;;;1.90;100.00
32131;BME280;18639;50.716;7.086;2023-01-26T11:50:32;101113.84;;;2.06;100.00
32131;BME280;18639;50.716;7.086;2023-01-26T11:53:11;101111.31;;;2.05;100.00
32131;BME280;18639;50.716;7.086;2023-01-26T11:55:57;101119.03;;;2.02;100.00
32131;BME280;18639;50.716;7.086;2023-01-26T11:58:40;101117.34;;;1.99;100.00
32131;BME280;18639;50.716;7.086;2023-01-26T12:01:17;101108.91;;;1.97;100.00
32131;BME280;18639;50.716;7.086;2023-01-26T12:03:49;101089.59;;;1.83;100.00
32131;BME280;18639;50.716;7.086;2023-01-26T12:06:28;101102.03;;;2.02;100.00
32131;BME280;18639;50.716;7.086;2023-01-26T12:09:05;101095.41;;;1.92;100.00
32131;BME280;18639;50.716;7.086;2023-01-26T12:11:49;101099.50;;;2.01;100.00
32131;BME280;18639;50.716;7.086;2023-01-26T12:14:37;101089.19;;;2.07;100.00
32131;BME280;18639;50.716;7.086;2023-01-26T12:17:23;101091.66;;;2.13;100.00
32131;BME280;18639;50.716;7.086;2023-01-26T12:19:57;101089.13;;;2.11;100.00
32131;BME280;18639;50.716;7.086;2023-01-26T12:22:32;101073.06;;;2.06;100.00
32131;BME280;18639;50.716;7.086;2023-01-26T12:25:36;101078.00;;;2.16;100.00
32131;BME280;18639;50.716;7.086;2023-01-26T12:28:22;101084.78;;;2.17;100.00
32131;BME280;18639;50.716;7.086;2023-01-26T12:31:13;101089.13;;;2.11;100.00
32131;BME280;18639;50.716;7.086;2023-01-26T12:33:42;101045.97;;;2.02;100.00
32131;BME280;18639;50.716;7.086;2023-01-26T12:42:02;101063.66;;;2.08;100.00
32131;BME280;18639;50.716;7.086;2023-01-26T12:44:35;101061.06;;;2.11;100.00
32131;BME280;18639;50.716;7.086;2023-01-26T12:47:17;101067.78;;;2.16;100.00
32131;BME280;18639;50.716;7.086;2023-01-26T12:53:01;101069.41;;;2.20;100.00
32131;BME280;18639;50.716;7.086;2023-01-26T12:55:35;101054.19;;;2.15;100.00
32131;BME280;18639;50.716;7.086;2023-01-26T12:58:30;101062.50;;;2.25;100.00
32131;BME280;18639;50.716;7.086;2023-01-26T13:01:09;101055.88;;;2.18;100.00
32131;BME280;18639;50.716;7.086;2023-01-26T13:03:39;101039.19;;;2.00;100.00
32131;BME280;18639;50.716;7.086;2023-01-26T13:11:08;101039.22;;;1.98;100.00
32131;BME280;18639;50.716;7.086;2023-01-26T13:13:54;101049.25;;;2.07;100.00
32131;BME280;18639;50.716;7.086;2023-01-26T13:16:30;101020.63;;;1.93;100.00
32131;BME280;18639;50.716;7.086;2023-01-26T13:19:02;101053.47;;;2.08;100.00
32131;BME280;18639;50.716;7.086;2023-01-26T13:24:40;101055.97;;;2.11;100.00
32131;BME280;18639;50.716;7.086;2023-01-26T13:26:50;101051.00;;;2.05;100.00
32131;BME280;18639;50.716;7.086;2023-01-26T13:29:28;101058.53;;;2.11;100.00
32131;BME280;18639;50.716;7.086;2023-01-26T13:34:55;101037.66;;;1.91;100.00
32131;BME280;18639;50.716;7.086;2023-01-26T13:37:45;101056.09;;;2.05;100.00
32131;BME280;18639;50.716;7.086;2023-01-26T13:40:34;101034.97;;;1.99;100.00
32131;BME280;18639;50.716;7.086;2023-01-26T13:43:17;101065.41;;;2.06;100.00
32131;BME280;18639;50.716;7.086;2023-01-26T13:46:02;101044.97;;;2.09;100.00
32131;BME280;18639;50.716;7.086;2023-01-26T13:51:04;101050.16;;;2.05;100.00
32131;BME280;18639;50.716;7.086;2023-01-26T13:53:37;101064.56;;;2.07;100.00
32131;BME280;18639;50.716;7.086;2023-01-26T13:56:16;101052.78;;;2.00;100.00